Time;durP1;ratioP1;P1;durP2;ratioP2;P2;SDS_P1;SDS_P2;PMS_P1;PMS_P2;Temp;Humidity;BMP_temperature;BMP_pressure;BME280_temperature;BME280_humidity;BME280_pressure;Samples;Min_cycle;Max_cycle;Signal;HPM_P1;HPM_P2
2023/09/21 00:01:00;;;;;;;4.88;1.52;;;16.70;99.90;;;;;;5022616;28;20021;-65
2023/09/21 00:03:28;;;;;;;5.63;2.20;;;16.70;99.90;;;;;;5023069;28;20091;-64
2023/09/21 00:05:55;;;;;;;4.65;2.15;;;16.50;99.90;;;;;;5022265;28;20022;-64
2023/09/21 00:08:22;;;;;;;2.63;1.67;;;16.40;99.90;;;;;;5022762;28;20051;-65
2023/09/21 00:10:50;;;;;;;4.05;2.00;;;16.60;99.90;;;;;;5022344;28;20144;-65
2023/09/21 00:13:26;;;;;;;6.00;1.88;;;16.70;99.90;;;;;;5022763;28;20021;-65
2023/09/21 00:15:52;;;;;;;6.35;2.17;;;16.60;99.90;;;;;;5022099;28;20028;-65
2023/09/21 00:18:20;;;;;;;5.72;2.15;;;16.70;99.90;;;;;;5022135;28;20060;-65
2023/09/21 00:20:51;;;;;;;5.65;2.00;;;16.60;99.90;;;;;;5022822;28;20028;-65
2023/09/21 00:23:16;;;;;;;4.68;1.70;;;16.60;99.90;;;;;;5023178;28;20022;-65
2023/09/21 00:25:42;;;;;;;3.25;1.73;;;16.50;99.90;;;;;;5022745;28;20024;-66
2023/09/21 00:28:08;;;;;;;5.07;2.25;;;16.60;99.90;;;;;;5022348;28;20028;-65
2023/09/21 00:30:38;;;;;;;5.25;1.77;;;16.60;99.90;;;;;;5022284;28;20022;-65
2023/09/21 00:33:09;;;;;;;3.97;2.08;;;16.60;99.90;;;;;;5022390;28;20036;-65
2023/09/21 00:35:42;;;;;;;4.25;1.85;;;16.40;99.90;;;;;;5022334;28;20051;-65
2023/09/21 00:38:09;;;;;;;4.30;1.50;;;16.20;99.90;;;;;;5022513;28;20029;-65
2023/09/21 00:40:38;;;;;;;7.97;2.55;;;16.10;99.90;;;;;;5022074;28;20028;-65
2023/09/21 00:43:12;;;;;;;4.57;1.88;;;16.00;99.90;;;;;;5021688;28;20030;-65
2023/09/21 00:45:43;;;;;;;3.40;1.63;;;16.00;99.90;;;;;;5022300;28;20021;-65
2023/09/21 00:48:10;;;;;;;4.32;1.83;;;16.00;99.90;;;;;;5021714;28;20025;-65
2023/09/21 00:50:37;;;;;;;2.83;1.70;;;16.10;99.90;;;;;;5022025;28;20028;-65
2023/09/21 00:53:05;;;;;;;7.00;1.65;;;16.10;99.90;;;;;;5021559;28;20021;-65
2023/09/21 00:55:34;;;;;;;3.97;2.08;;;16.10;99.90;;;;;;5021657;28;20032;-64
2023/09/21 00:58:03;;;;;;;3.20;1.98;;;16.10;99.90;;;;;;5022122;28;20021;-65
2023/09/21 01:00:31;;;;;;;4.10;2.00;;;16.20;99.90;;;;;;5021683;28;20025;-65
2023/09/21 01:03:07;;;;;;;2.83;1.77;;;16.10;99.90;;;;;;5021691;28;20029;-65
2023/09/21 01:05:34;;;;;;;2.67;1.70;;;16.20;99.90;;;;;;5022094;28;20025;-65
2023/09/21 01:08:04;;;;;;;6.03;2.10;;;16.10;99.90;;;;;;5021390;28;20053;-65
2023/09/21 01:10:30;;;;;;;6.80;1.88;;;16.10;99.90;;;;;;5021101;28;20024;-65
2023/09/21 01:12:55;;;;;;;4.20;1.77;;;16.10;99.90;;;;;;5021472;28;20029;-65
2023/09/21 01:15:21;;;;;;;3.80;1.80;;;16.10;99.90;;;;;;5021543;28;20067;-65
2023/09/21 01:17:47;;;;;;;3.17;1.73;;;16.10;99.90;;;;;;5020959;28;20030;-65
2023/09/21 01:20:22;;;;;;;6.78;2.30;;;16.00;99.90;;;;;;5021353;28;20024;-65
2023/09/21 01:23:19;;;;;;;4.18;2.10;;;16.00;99.90;;;;;;5021237;28;20032;-64
2023/09/21 01:25:52;;;;;;;3.55;1.80;;;15.90;99.90;;;;;;5021497;28;20021;-64
2023/09/21 01:28:20;;;;;;;4.05;1.95;;;15.90;99.90;;;;;;5021804;28;20089;-65
2023/09/21 01:30:46;;;;;;;7.47;1.65;;;15.80;99.90;;;;;;5020855;28;20025;-65
2023/09/21 01:33:12;;;;;;;3.03;1.55;;;15.70;99.90;;;;;;5021024;28;20026;-65
2023/09/21 01:35:44;;;;;;;3.53;1.92;;;15.60;99.90;;;;;;5020920;28;20026;-65
2023/09/21 01:38:12;;;;;;;3.38;1.48;;;15.60;99.90;;;;;;5020100;28;20029;-65
2023/09/21 01:40:38;;;;;;;2.78;1.60;;;15.60;99.90;;;;;;5020763;28;20079;-65
2023/09/21 01:43:08;;;;;;;3.85;1.90;;;15.60;99.90;;;;;;5021399;28;20113;-65
2023/09/21 01:45:37;;;;;;;4.78;1.70;;;15.60;99.90;;;;;;5020637;28;20028;-65
2023/09/21 01:48:09;;;;;;;4.57;1.85;;;15.60;99.90;;;;;;5020946;28;20033;-64
2023/09/21 01:50:40;;;;;;;2.00;1.52;;;15.40;99.90;;;;;;5020689;28;20172;-65
2023/09/21 01:53:09;;;;;;;2.25;1.55;;;15.50;99.90;;;;;;5020831;28;20025;-65
2023/09/21 01:55:35;;;;;;;7.25;2.03;;;15.40;99.90;;;;;;5021030;28;20052;-65
2023/09/21 01:58:01;;;;;;;4.47;2.00;;;15.40;99.90;;;;;;5020376;28;20026;-65
2023/09/21 02:00:29;;;;;;;4.90;1.75;;;15.40;99.90;;;;;;5020532;28;20028;-65
2023/09/21 02:02:55;;;;;;;3.63;1.48;;;15.40;99.90;;;;;;5020564;28;20033;-65
2023/09/21 02:05:22;;;;;;;4.07;1.85;;;15.30;99.90;;;;;;5020664;28;20088;-65
2023/09/21 02:07:48;;;;;;;2.72;1.60;;;15.40;99.90;;;;;;5021030;28;20025;-65
2023/09/21 02:10:17;;;;;;;4.22;1.80;;;15.50;99.90;;;;;;5020444;28;20116;-65
2023/09/21 02:13:05;;;;;;;6.03;2.17;;;15.40;99.90;;;;;;5020105;28;20026;-65
2023/09/21 02:15:34;;;;;;;5.40;2.53;;;15.40;99.90;;;;;;5019969;28;20030;-64
2023/09/21 02:18:02;;;;;;;2.22;1.98;;;15.40;99.90;;;;;;5020673;28;20096;-65
2023/09/21 02:20:32;;;;;;;2.35;1.40;;;15.40;99.90;;;;;;5020027;28;20025;-65
2023/09/21 02:23:00;;;;;;;7.50;1.67;;;15.30;99.90;;;;;;5019786;28;20026;-64
2023/09/21 02:25:30;;;;;;;3.40;1.85;;;15.30;99.90;;;;;;5020125;28;20071;-64
2023/09/21 02:27:55;;;;;;;3.53;2.40;;;15.20;99.90;;;;;;5019840;28;20025;-64
2023/09/21 02:30:22;;;;;;;3.67;1.70;;;15.20;99.90;;;;;;5020225;28;20032;-64
2023/09/21 02:32:49;;;;;;;5.45;1.85;;;15.20;99.90;;;;;;5020184;28;20076;-65
2023/09/21 02:35:22;;;;;;;3.05;1.58;;;15.20;99.90;;;;;;5019763;28;20026;-65
2023/09/21 02:37:49;;;;;;;4.32;2.10;;;15.20;99.90;;;;;;5019667;28;20167;-65
2023/09/21 02:40:17;;;;;;;3.45;2.10;;;15.20;99.90;;;;;;5020491;28;20025;-65
2023/09/21 02:42:44;;;;;;;3.95;2.20;;;15.20;99.90;;;;;;5020030;28;20022;-65
2023/09/21 02:45:13;;;;;;;4.10;1.90;;;15.40;99.90;;;;;;5019857;28;20021;-65
2023/09/21 02:47:41;;;;;;;7.20;2.10;;;15.40;99.90;;;;;;5019964;28;20039;-65
2023/09/21 02:50:25;;;;;;;5.22;2.45;;;15.50;99.90;;;;;;5019577;28;20026;-65
2023/09/21 02:53:04;;;;;;;3.78;2.10;;;15.50;99.90;;;;;;5020298;28;20099;-65
2023/09/21 02:55:29;;;;;;;4.28;1.95;;;15.40;99.90;;;;;;5019665;28;20025;-65
2023/09/21 02:57:56;;;;;;;4.60;2.13;;;15.50;99.90;;;;;;5020253;28;20025;-66
2023/09/21 03:00:26;;;;;;;5.25;2.25;;;15.50;99.90;;;;;;5019497;28;20022;-65
2023/09/21 03:02:55;;;;;;;4.53;2.05;;;15.40;99.90;;;;;;5019457;28;20030;-64
2023/09/21 03:05:23;;;;;;;4.97;2.30;;;15.40;99.90;;;;;;5019414;28;20075;-65
2023/09/21 03:07:49;;;;;;;6.25;2.38;;;15.30;99.90;;;;;;5019575;28;20025;-65
2023/09/21 03:10:16;;;;;;;4.97;2.50;;;15.20;99.90;;;;;;5020112;28;20025;-65
2023/09/21 03:12:42;;;;;;;4.30;1.92;;;15.20;99.90;;;;;;5019677;28;20025;-64
2023/09/21 03:15:14;;;;;;;3.60;2.08;;;15.30;99.90;;;;;;5020225;28;20026;-65
2023/09/21 03:17:41;;;;;;;5.00;1.98;;;15.30;99.90;;;;;;5019652;28;20017;-65
2023/09/21 03:22:55;;;;;;;3.55;1.95;;;15.20;99.90;;;;;;5037191;28;20081;-65
2023/09/21 03:25:54;;;;;;;4.75;2.25;;;15.20;99.90;;;;;;5019163;28;20032;-65
2023/09/21 03:28:15;;;;;;;5.78;2.10;;;15.20;99.90;;;;;;5033814;28;20064;-65
2023/09/21 03:30:44;;;;;;;7.55;2.55;;;15.10;99.90;;;;;;5019579;28;20076;-65
2023/09/21 03:33:10;;;;;;;6.70;2.25;;;15.10;99.90;;;;;;5019119;28;20021;-64
2023/09/21 03:35:37;;;;;;;4.47;1.90;;;15.20;99.90;;;;;;5019532;28;20083;-65
2023/09/21 03:38:06;;;;;;;6.97;2.40;;;15.20;99.90;;;;;;5019316;28;20089;-65
2023/09/21 03:40:34;;;;;;;6.68;2.25;;;15.10;99.90;;;;;;5019947;28;20079;-65
2023/09/21 03:43:00;;;;;;;5.00;2.25;;;14.90;99.90;;;;;;5019203;28;20072;-65
2023/09/21 03:45:26;;;;;;;5.78;2.33;;;15.00;99.90;;;;;;5018866;28;20029;-64
2023/09/21 03:47:53;;;;;;;4.25;2.10;;;15.00;99.90;;;;;;5019865;28;20025;-65
2023/09/21 03:50:19;;;;;;;3.78;1.90;;;15.00;99.90;;;;;;5018975;28;20032;-65
2023/09/21 03:52:45;;;;;;;7.95;1.98;;;15.00;99.90;;;;;;5018999;28;20056;-65
2023/09/21 03:55:15;;;;;;;5.18;2.38;;;15.00;99.90;;;;;;5019690;28;20026;-65
2023/09/21 03:57:41;;;;;;;5.32;2.38;;;15.10;99.90;;;;;;5018843;28;20163;-65
2023/09/21 04:00:17;;;;;;;4.90;2.80;;;15.10;99.90;;;;;;5020526;28;20048;-65
2023/09/21 04:02:45;;;;;;;5.55;2.38;;;15.20;99.90;;;;;;5023603;28;20017;-65
2023/09/21 04:05:12;;;;;;;6.40;2.10;;;15.00;99.90;;;;;;5023197;28;20022;-65
2023/09/21 04:07:37;;;;;;;8.88;2.10;;;14.80;99.90;;;;;;5022681;28;20026;-64
2023/09/21 04:10:04;;;;;;;4.22;1.85;;;14.80;99.90;;;;;;5022714;28;20052;-65
2023/09/21 04:12:30;;;;;;;5.65;2.00;;;14.70;99.90;;;;;;5022246;28;20021;-65
2023/09/21 04:14:56;;;;;;;5.22;2.20;;;14.60;99.90;;;;;;5022290;28;20025;-64
2023/09/21 04:17:22;;;;;;;3.45;1.88;;;14.60;99.90;;;;;;5022427;28;20029;-65
2023/09/21 04:19:47;;;;;;;3.92;1.90;;;14.50;99.90;;;;;;5023231;28;20022;-65
2023/09/21 04:22:13;;;;;;;4.47;2.10;;;14.60;99.90;;;;;;5022225;28;20045;-65
2023/09/21 04:24:39;;;;;;;2.65;1.70;;;14.60;99.90;;;;;;5022315;28;20033;-65
2023/09/21 04:27:05;;;;;;;5.15;3.13;;;14.50;99.90;;;;;;5022316;28;20075;-64
2023/09/21 04:29:31;;;;;;;4.97;2.08;;;14.50;99.90;;;;;;5022167;28;20026;-64
2023/09/21 04:31:56;;;;;;;5.20;1.88;;;14.60;99.90;;;;;;5022269;28;20060;-64
2023/09/21 04:34:22;;;;;;;3.25;2.20;;;14.70;99.90;;;;;;5022778;28;20025;-65
2023/09/21 04:36:47;;;;;;;4.47;2.63;;;14.80;99.90;;;;;;5022189;28;20018;-65
2023/09/21 04:39:15;;;;;;;6.18;2.65;;;14.80;99.90;;;;;;5022087;28;20017;-65
2023/09/21 04:41:40;;;;;;;5.22;2.10;;;14.90;99.90;;;;;;5022173;28;20033;-64
2023/09/21 04:44:08;;;;;;;5.35;2.55;;;14.90;99.90;;;;;;5021864;28;20022;-65
2023/09/21 04:46:36;;;;;;;4.07;2.40;;;15.00;99.90;;;;;;5021832;28;20029;-65
2023/09/21 04:49:02;;;;;;;6.90;2.38;;;15.10;99.90;;;;;;5021739;28;20029;-65
2023/09/21 04:51:28;;;;;;;6.30;2.88;;;15.10;99.90;;;;;;5021943;28;20026;-65
2023/09/21 04:53:54;;;;;;;4.70;2.30;;;15.20;99.90;;;;;;5022521;28;20021;-65
2023/09/21 04:56:19;;;;;;;3.15;2.05;;;15.10;99.90;;;;;;5021351;28;20025;-65
2023/09/21 04:58:45;;;;;;;3.67;2.20;;;14.90;99.90;;;;;;5021317;28;20021;-65
2023/09/21 05:01:10;;;;;;;3.42;2.55;;;14.80;99.90;;;;;;5022182;28;20052;-65
2023/09/21 05:03:37;;;;;;;5.00;2.30;;;14.60;99.90;;;;;;5021814;28;20144;-64
2023/09/21 05:06:04;;;;;;;5.57;2.30;;;14.60;99.90;;;;;;5021240;28;20032;-65
2023/09/21 05:08:35;;;;;;;4.65;2.13;;;14.70;99.90;;;;;;5021415;28;20040;-65
2023/09/21 05:11:00;;;;;;;3.97;2.25;;;14.80;99.90;;;;;;5020820;28;20037;-65
2023/09/21 05:13:27;;;;;;;3.75;2.38;;;14.90;99.90;;;;;;5020684;28;20025;-65
2023/09/21 05:15:53;;;;;;;7.72;2.40;;;15.00;99.90;;;;;;5021774;28;20087;-65
2023/09/21 05:18:18;;;;;;;3.85;2.55;;;15.10;99.90;;;;;;5021621;28;20029;-65
2023/09/21 05:20:45;;;;;;;3.08;2.17;;;15.10;99.90;;;;;;5021279;28;20027;-65
2023/09/21 05:23:10;;;;;;;6.75;2.80;;;15.10;99.90;;;;;;5021321;28;20022;-65
2023/09/21 05:25:36;;;;;;;6.82;2.35;;;15.20;99.90;;;;;;5021295;28;20017;-65
2023/09/21 05:28:02;;;;;;;8.20;2.72;;;15.30;99.90;;;;;;5021794;28;20108;-65
2023/09/21 05:30:30;;;;;;;7.00;2.80;;;15.30;99.90;;;;;;5021165;28;20032;-65
2023/09/21 05:32:56;;;;;;;8.75;3.30;;;15.40;99.90;;;;;;5020810;28;20021;-66
2023/09/21 05:35:23;;;;;;;8.85;3.67;;;15.50;99.90;;;;;;5020834;28;20140;-65
2023/09/21 05:37:49;;;;;;;6.57;3.38;;;15.50;99.90;;;;;;5020684;28;20025;-65
2023/09/21 05:40:15;;;;;;;7.93;2.85;;;15.60;99.90;;;;;;5020816;28;20071;-65
2023/09/21 05:42:41;;;;;;;6.78;2.60;;;15.70;99.90;;;;;;5020662;28;20021;-65
2023/09/21 05:45:08;;;;;;;4.13;2.40;;;15.80;99.90;;;;;;5020990;28;20029;-65
2023/09/21 05:47:33;;;;;;;4.32;2.30;;;15.90;99.90;;;;;;5043866;22;20045;-70
2023/09/21 05:49:59;;;;;;;8.75;2.58;;;15.90;99.90;;;;;;5020579;28;20120;-70
2023/09/21 05:52:25;;;;;;;6.13;2.58;;;15.90;99.90;;;;;;5020491;28;20025;-70
2023/09/21 05:54:51;;;;;;;5.53;2.85;;;15.80;99.90;;;;;;5021571;28;20029;-70
2023/09/21 05:57:17;;;;;;;8.20;2.97;;;15.80;99.90;;;;;;5020511;28;20032;-70
2023/09/21 05:59:43;;;;;;;5.10;2.60;;;15.80;99.90;;;;;;5020420;28;20021;-70
2023/09/21 06:02:13;;;;;;;10.52;3.03;;;15.80;99.90;;;;;;5020844;28;20029;-70
2023/09/21 06:04:40;;;;;;;7.55;3.05;;;15.90;99.90;;;;;;5037950;28;20024;-70
2023/09/21 06:07:05;;;;;;;5.82;2.65;;;15.90;99.90;;;;;;5020401;28;20034;-70
2023/09/21 06:09:33;;;;;;;6.03;3.08;;;16.00;99.90;;;;;;5037417;28;20025;-71
2023/09/21 06:11:59;;;;;;;6.68;2.75;;;16.00;99.90;;;;;;5020085;28;20030;-70
2023/09/21 06:14:25;;;;;;;7.53;2.90;;;15.90;99.90;;;;;;5037556;28;20083;-70
2023/09/21 06:16:51;;;;;;;11.73;3.25;;;15.90;99.90;;;;;;5019970;28;20120;-70
2023/09/21 06:19:18;;;;;;;8.00;2.67;;;15.70;99.90;;;;;;5020519;28;20078;-70
2023/09/21 06:21:47;;;;;;;4.65;2.60;;;15.60;99.90;;;;;;5037271;28;20033;-70
2023/09/21 06:24:13;;;;;;;5.72;2.80;;;15.50;99.90;;;;;;5020342;28;20036;-70
2023/09/21 06:26:38;;;;;;;4.82;2.80;;;15.50;99.90;;;;;;5037404;28;20022;-70
2023/09/21 06:29:04;;;;;;;9.35;2.78;;;15.60;99.90;;;;;;5019865;28;20032;-70
2023/09/21 06:31:30;;;;;;;5.55;2.75;;;15.80;99.90;;;;;;5020631;28;20021;-70
2023/09/21 06:33:58;;;;;;;5.05;2.33;;;16.00;99.90;;;;;;5020227;28;20036;-70
2023/09/21 06:36:28;;;;;;;5.22;2.65;;;16.10;99.90;;;;;;5037133;28;20028;-70
2023/09/21 06:38:53;;;;;;;3.60;2.72;;;16.20;99.90;;;;;;5037046;28;20048;-70
2023/09/21 06:41:20;;;;;;;8.35;3.17;;;16.30;99.90;;;;;;5019742;28;20030;-70
2023/09/21 06:43:46;;;;;;;4.65;2.53;;;16.20;99.90;;;;;;5037140;28;20101;-70
2023/09/21 06:46:11;;;;;;;6.25;2.88;;;16.10;99.90;;;;;;5037106;28;20071;-70
2023/09/21 06:48:38;;;;;;;6.88;3.00;;;16.10;99.90;;;;;;5037387;28;20033;-70
2023/09/21 06:51:07;;;;;;;5.60;2.67;;;16.00;99.90;;;;;;5019838;28;20026;-71
2023/09/21 06:53:34;;;;;;;7.07;2.88;;;16.10;99.90;;;;;;5037214;28;20163;-71
2023/09/21 06:56:00;;;;;;;5.25;2.35;;;16.20;99.90;;;;;;5036884;28;20029;-70
2023/09/21 06:58:25;;;;;;;4.85;2.40;;;16.20;99.90;;;;;;5037376;28;20049;-70
2023/09/21 07:00:51;;;;;;;5.90;2.42;;;16.20;99.90;;;;;;5020196;28;20025;-70
2023/09/21 07:03:18;;;;;;;5.82;2.70;;;16.30;99.90;;;;;;5019814;28;20017;-70
2023/09/21 07:05:48;;;;;;;4.93;2.38;;;16.40;99.90;;;;;;5036924;28;20026;-70
2023/09/21 07:08:14;;;;;;;5.47;2.67;;;16.60;99.90;;;;;;5037068;28;20099;-70
2023/09/21 07:10:40;;;;;;;8.48;2.65;;;16.70;99.90;;;;;;5019732;28;20029;-73
2023/09/21 07:13:07;;;;;;;4.78;2.60;;;16.90;99.90;;;;;;5019751;28;20026;-73
2023/09/21 07:15:33;;;;;;;8.52;2.85;;;17.00;99.90;;;;;;5036678;28;20018;-73
2023/09/21 07:17:59;;;;;;;5.25;2.70;;;17.20;99.90;;;;;;5019772;28;20082;-73
2023/09/21 07:20:26;;;;;;;4.88;2.58;;;17.50;99.90;;;;;;5036641;28;20053;-73
2023/09/21 07:22:52;;;;;;;4.30;2.30;;;17.60;99.90;;;;;;5036730;28;20018;-73
2023/09/21 07:25:19;;;;;;;5.55;2.35;;;17.70;99.90;;;;;;5020180;28;20026;-73
2023/09/21 07:27:45;;;;;;;5.72;2.35;;;17.90;99.90;;;;;;5019158;28;20033;-73
2023/09/21 07:30:13;;;;;;;5.38;2.63;;;18.00;99.90;;;;;;5036986;28;20021;-73
2023/09/21 07:32:39;;;;;;;5.38;2.30;;;18.30;99.90;;;;;;5019177;28;20033;-73
2023/09/21 07:35:06;;;;;;;2.90;2.10;;;18.60;99.90;;;;;;5037484;28;20053;-73
2023/09/21 07:37:35;;;;;;;4.72;2.25;;;18.80;99.90;;;;;;5040418;28;20021;-73
2023/09/21 07:40:06;;;;;;;4.38;2.40;;;18.90;99.90;;;;;;5023751;28;20101;-73
2023/09/21 07:42:35;;;;;;;;;;;18.90;99.90;;;;;;5040812;28;20018;-73
2023/09/21 07:45:01;;;;;;;5.50;1.83;;;18.90;99.90;;;;;;5040276;28;19904;-73
2023/09/21 07:47:26;;;;;;;5.63;2.38;;;18.90;99.90;;;;;;5022836;28;20097;-73
2023/09/21 07:49:55;;;;;;;4.65;2.70;;;18.80;99.90;;;;;;5023430;28;20064;-73
2023/09/21 07:52:24;;;;;;;7.60;2.53;;;18.90;99.90;;;;;;5040056;28;20029;-74
2023/09/21 07:54:50;;;;;;;3.88;2.55;;;19.00;99.90;;;;;;5022625;28;20075;-73
2023/09/21 07:57:16;;;;;;;4.55;2.40;;;19.00;99.90;;;;;;5023509;28;20175;-73
2023/09/21 07:59:42;;;;;;;4.32;2.35;;;18.90;99.90;;;;;;5040309;28;20139;-73
2023/09/21 08:02:09;;;;;;;5.45;2.25;;;18.70;99.90;;;;;;5039974;28;20024;-73
2023/09/21 08:04:38;;;;;;;4.35;1.85;;;18.70;99.90;;;;;;5040045;28;20028;-73
2023/09/21 08:07:05;;;;;;;3.40;2.20;;;18.50;99.90;;;;;;5039777;28;20021;-73
2023/09/21 08:09:31;;;;;;;2.72;2.03;;;18.50;99.90;;;;;;5039809;28;20021;-73
2023/09/21 08:11:57;;;;;;;4.72;2.38;;;18.50;99.90;;;;;;5040021;28;20025;-73
2023/09/21 08:14:23;;;;;;;3.40;2.13;;;18.60;99.90;;;;;;5039698;28;20033;-73
2023/09/21 08:16:50;;;;;;;5.35;2.22;;;18.60;99.90;;;;;;5022127;28;20026;-73
2023/09/21 08:19:15;;;;;;;6.05;2.40;;;18.50;99.90;;;;;;5022232;28;20113;-73
2023/09/21 08:21:41;;;;;;;4.38;2.22;;;18.50;99.90;;;;;;5022177;28;20088;-73
2023/09/21 08:24:09;;;;;;;3.60;2.25;;;18.50;99.90;;;;;;5022248;28;20018;-73
2023/09/21 08:26:35;;;;;;;4.47;2.30;;;18.60;99.90;;;;;;5039629;28;20017;-73
2023/09/21 08:29:00;;;;;;;3.80;2.15;;;18.60;99.90;;;;;;5022157;28;20067;-73
2023/09/21 08:31:27;;;;;;;5.82;2.55;;;18.60;99.90;;;;;;5039633;28;20060;-73
2023/09/21 08:33:53;;;;;;;5.40;2.50;;;18.70;99.90;;;;;;5039473;28;20021;-73
2023/09/21 08:36:19;;;;;;;5.80;2.70;;;18.70;99.90;;;;;;5021849;28;20164;-73
2023/09/21 08:38:45;;;;;;;10.27;2.85;;;18.60;99.90;;;;;;5039197;28;20084;-73
2023/09/21 08:41:11;;;;;;;4.30;2.45;;;18.60;99.90;;;;;;5039281;28;20018;-73
2023/09/21 08:43:38;;;;;;;5.00;2.13;;;18.50;99.90;;;;;;5021837;28;20048;-73
2023/09/21 08:46:06;;;;;;;3.42;2.28;;;18.60;99.90;;;;;;5021254;28;20025;-73
2023/09/21 08:48:33;;;;;;;9.02;3.10;;;18.70;99.90;;;;;;5021611;28;20123;-73
2023/09/21 08:51:00;;;;;;;6.97;2.95;;;18.60;99.90;;;;;;5021599;28;20083;-73
2023/09/21 08:53:27;;;;;;;7.80;2.92;;;18.60;99.90;;;;;;5039007;28;20021;-73
2023/09/21 08:55:56;;;;;;;4.20;2.58;;;18.50;99.90;;;;;;5021295;28;20025;-73
2023/09/21 08:58:27;;;;;;;5.18;3.28;;;18.60;99.90;;;;;;5038919;28;20100;-73
2023/09/21 09:00:55;;;;;;;6.45;2.92;;;18.50;99.90;;;;;;5039060;28;20091;-73
2023/09/21 09:03:25;;;;;;;4.45;2.72;;;18.50;99.90;;;;;;5038755;28;20026;-73
2023/09/21 09:05:52;;;;;;;3.97;2.63;;;18.40;99.90;;;;;;5038763;28;20028;-73
2023/09/21 09:08:18;;;;;;;7.70;3.70;;;18.40;99.90;;;;;;5021600;28;20021;-73
2023/09/21 09:10:43;;;;;;;12.50;5.43;;;18.30;99.90;;;;;;5021361;28;20032;-73
2023/09/21 09:13:09;;;;;;;15.45;5.82;;;18.30;99.90;;;;;;5021226;28;20036;-73
2023/09/21 09:15:37;;;;;;;11.40;3.78;;;18.30;99.90;;;;;;5038551;28;20041;-73
2023/09/21 09:18:03;;;;;;;7.18;3.45;;;18.30;99.90;;;;;;5021114;28;20032;-73
2023/09/21 09:20:30;;;;;;;12.40;4.43;;;18.40;99.90;;;;;;5038405;28;20028;-73
2023/09/21 09:22:56;;;;;;;8.00;3.25;;;18.40;99.90;;;;;;5038489;28;20053;-73
2023/09/21 09:25:21;;;;;;;6.53;3.20;;;18.50;99.90;;;;;;5038817;28;20025;-73
2023/09/21 09:27:47;;;;;;;7.68;3.10;;;18.60;99.90;;;;;;5021194;28;20021;-73
2023/09/21 09:30:13;;;;;;;4.55;2.38;;;18.70;99.90;;;;;;5021990;28;20071;-73
2023/09/21 09:32:42;;;;;;;6.68;3.47;;;18.80;99.90;;;;;;5038349;28;20045;-73
2023/09/21 09:35:14;;;;;;;7.18;2.88;;;18.80;99.90;;;;;;5020891;28;20083;-73
2023/09/21 09:37:42;;;;;;;5.68;3.13;;;18.90;99.90;;;;;;5020727;28;20028;-73
2023/09/21 09:40:23;;;;;;;7.30;2.40;;;18.90;99.90;;;;;;5038447;28;20041;-73
2023/09/21 09:42:51;;;;;;;;;;;18.80;99.90;;;;;;5038397;28;20025;-73
2023/09/21 09:45:24;;;;;;;7.80;2.60;;;18.90;99.90;;;;;;5021068;28;19913;-73
2023/09/21 09:47:57;;;;;;;3.53;2.20;;;18.90;99.90;;;;;;5020990;28;20106;-73
2023/09/21 09:50:24;;;;;;;6.20;2.58;;;18.90;99.90;;;;;;5037931;28;20021;-73
2023/09/21 09:53:01;;;;;;;4.60;2.67;;;19.10;99.90;;;;;;5038080;28;20025;-73
2023/09/21 09:55:33;;;;;;;6.38;2.40;;;19.00;99.90;;;;;;5037800;28;20040;-73
2023/09/21 09:57:59;;;;;;;6.53;2.65;;;19.10;99.90;;;;;;5037264;28;20064;-73
2023/09/21 10:00:27;;;;;;;7.22;2.40;;;19.20;99.90;;;;;;5020287;28;20026;-73
2023/09/21 10:02:55;;;;;;;3.55;2.08;;;19.30;99.90;;;;;;5037962;28;20052;-73
2023/09/21 10:05:24;;;;;;;5.88;2.35;;;19.50;99.90;;;;;;5037623;28;20048;-73
2023/09/21 10:07:51;;;;;;;5.97;2.53;;;19.30;99.90;;;;;;5020536;28;20025;-73
2023/09/21 10:10:20;;;;;;;7.32;2.75;;;19.20;99.90;;;;;;5037579;28;20025;-73
2023/09/21 10:12:49;;;;;;;7.15;2.55;;;19.20;99.90;;;;;;5020178;28;20030;-74
2023/09/21 10:15:16;;;;;;;4.80;2.65;;;19.20;99.90;;;;;;5037580;28;20100;-73
2023/09/21 10:17:42;;;;;;;9.38;3.72;;;19.20;99.90;;;;;;5019745;28;20049;-73
2023/09/21 10:20:14;;;;;;;4.65;2.60;;;19.20;99.90;;;;;;5020392;28;20052;-73
2023/09/21 10:22:44;;;;;;;7.28;2.33;;;19.00;99.90;;;;;;5037603;28;20029;-73
2023/09/21 10:25:13;;;;;;;3.95;2.20;;;19.00;99.90;;;;;;5020427;28;20029;-73
2023/09/21 10:27:39;;;;;;;10.75;2.50;;;18.90;99.90;;;;;;5037292;28;20121;-73
2023/09/21 10:30:09;;;;;;;4.45;2.22;;;18.90;99.90;;;;;;5019929;28;20061;-73
2023/09/21 10:32:49;;;;;;;7.88;2.33;;;18.90;99.90;;;;;;5020923;28;20021;-73
2023/09/21 10:35:42;;;;;;;4.65;2.00;;;18.90;99.90;;;;;;5037413;28;20025;-73
2023/09/21 10:38:11;;;;;;;2.42;1.95;;;18.90;99.90;;;;;;5037788;28;20052;-73
2023/09/21 10:40:37;;;;;;;8.90;2.47;;;19.00;99.90;;;;;;5037009;28;20168;-73
2023/09/21 10:43:38;;;;;;;3.67;2.08;;;19.10;99.90;;;;;;5037239;28;20045;-73
2023/09/21 10:46:21;;;;;;;4.07;2.17;;;19.20;99.90;;;;;;5036857;28;20025;-73
2023/09/21 10:48:56;;;;;;;4.90;2.47;;;19.30;99.90;;;;;;5037026;28;20055;-73
2023/09/21 10:51:22;;;;;;;9.43;2.45;;;19.30;99.90;;;;;;5037313;28;20045;-73
2023/09/21 10:53:49;;;;;;;5.75;2.80;;;19.40;99.90;;;;;;5036950;28;20025;-73
2023/09/21 10:56:14;;;;;;;7.40;2.35;;;19.50;99.90;;;;;;5037395;28;20056;-73
2023/09/21 10:58:40;;;;;;;6.88;2.20;;;19.40;99.90;;;;;;5020516;28;20065;-73
2023/09/21 11:01:06;;;;;;;5.75;2.08;;;19.50;99.90;;;;;;5019630;28;20024;-73
2023/09/21 11:03:35;;;;;;;4.07;1.95;;;19.50;99.90;;;;;;5037150;28;20021;-73
2023/09/21 11:06:01;;;;;;;6.18;2.50;;;19.50;99.90;;;;;;5036711;28;20024;-73
2023/09/21 11:08:26;;;;;;;6.35;2.35;;;19.50;99.90;;;;;;5036897;28;20112;-73
2023/09/21 11:10:53;;;;;;;4.60;1.80;;;19.50;99.90;;;;;;5023651;28;20017;-74
2023/09/21 11:13:18;;;;;;;4.25;2.58;;;19.40;99.90;;;;;;5041399;28;20022;-73
2023/09/21 11:15:45;;;;;;;6.63;2.30;;;19.50;99.90;;;;;;5023738;28;20025;-73
2023/09/21 11:18:10;;;;;;;4.28;2.00;;;19.50;99.90;;;;;;5023278;28;20160;-73
2023/09/21 11:20:36;;;;;;;5.82;2.15;;;19.50;99.90;;;;;;5040686;28;20060;-73
2023/09/21 11:23:03;;;;;;;6.10;2.35;;;19.50;99.90;;;;;;5040632;28;20075;-74
2023/09/21 11:25:28;;;;;;;9.98;3.05;;;19.60;99.90;;;;;;5040911;28;20013;-73
2023/09/21 11:27:57;;;;;;;11.50;3.85;;;19.60;99.90;;;;;;5040509;28;20099;-74
2023/09/21 11:30:25;;;;;;;7.25;3.22;;;19.60;99.90;;;;;;5040577;28;20120;-73
2023/09/21 11:32:52;;;;;;;3.92;2.65;;;19.60;99.90;;;;;;5040803;28;20048;-73
2023/09/21 11:35:19;;;;;;;4.53;1.90;;;19.60;99.90;;;;;;5040426;28;20033;-74
2023/09/21 11:37:50;;;;;;;3.25;1.90;;;19.70;99.90;;;;;;5040104;28;20068;-73
2023/09/21 11:40:21;;;;;;;8.13;2.58;;;19.70;99.90;;;;;;5023026;28;20041;-73
2023/09/21 11:42:47;;;;;;;7.25;2.40;;;19.70;99.90;;;;;;5040412;28;20025;-73
2023/09/21 11:45:17;;;;;;;9.07;4.00;;;19.80;99.90;;;;;;5040260;28;20056;-74
2023/09/21 11:47:56;;;;;;;12.32;4.30;;;19.80;99.90;;;;;;5045957;22;20057;-77
2023/09/21 11:50:27;;;;;;;6.45;2.97;;;19.80;99.90;;;;;;5040448;28;20081;-76
2023/09/21 11:52:54;;;;;;;4.97;2.13;;;19.80;99.90;;;;;;5023305;28;20028;-76
2023/09/21 11:55:21;;;;;;;8.73;2.67;;;19.80;99.90;;;;;;5040396;28;20086;-76
2023/09/21 11:57:49;;;;;;;7.75;2.60;;;19.80;99.90;;;;;;5040051;28;20021;-75
2023/09/21 12:00:26;;;;;;;5.90;2.35;;;19.90;99.90;;;;;;5023392;28;20026;-76
2023/09/21 12:02:53;;;;;;;5.03;2.50;;;19.90;99.90;;;;;;5040299;28;20025;-76
2023/09/21 12:05:20;;;;;;;9.38;2.70;;;20.00;99.90;;;;;;5022546;28;20029;-76
2023/09/21 12:07:46;;;;;;;7.97;2.28;;;20.10;99.90;;;;;;5039962;28;20109;-76
2023/09/21 12:10:13;;;;;;;2.70;2.20;;;20.10;99.90;;;;;;5022384;28;20107;-76
2023/09/21 12:12:40;;;;;;;6.47;2.10;;;20.10;99.90;;;;;;5023172;28;20029;-76
2023/09/21 12:15:06;;;;;;;6.05;2.30;;;20.10;99.90;;;;;;5039959;28;20129;-76
2023/09/21 12:17:32;;;;;;;6.72;2.75;;;20.20;99.90;;;;;;5022956;28;20049;-76
2023/09/21 12:20:00;;;;;;;6.53;2.30;;;20.30;99.90;;;;;;5039548;28;20028;-76
2023/09/21 12:22:26;;;;;;;5.95;2.95;;;20.30;99.90;;;;;;5039404;28;20048;-76
2023/09/21 12:24:54;;;;;;;6.93;2.22;;;20.30;99.90;;;;;;5039464;28;20024;-76
2023/09/21 12:27:20;;;;;;;6.15;2.17;;;20.40;99.90;;;;;;5022011;28;20085;-76
2023/09/21 12:29:45;;;;;;;7.00;2.65;;;20.50;99.90;;;;;;5022522;28;20062;-76
2023/09/21 12:32:11;;;;;;;5.00;2.13;;;20.60;99.90;;;;;;5021997;28;20116;-76
2023/09/21 12:34:37;;;;;;;3.30;1.95;;;20.60;99.90;;;;;;5039334;28;20025;-77
2023/09/21 12:37:05;;;;;;;4.95;1.70;;;20.70;99.90;;;;;;5039492;28;20064;-76
2023/09/21 12:39:31;;;;;;;4.72;2.05;;;20.80;99.90;;;;;;5022777;28;20022;-76
2023/09/21 12:41:56;;;;;;;3.40;1.92;;;20.80;99.90;;;;;;5039440;28;20032;-77
2023/09/21 12:44:22;;;;;;;4.55;2.20;;;20.90;99.90;;;;;;5039627;28;20021;-76
2023/09/21 12:46:48;;;;;;;7.82;2.35;;;20.90;99.90;;;;;;5039116;28;20033;-76
2023/09/21 12:49:14;;;;;;;3.92;2.05;;;20.90;99.90;;;;;;5021757;28;20053;-77
2023/09/21 12:51:40;;;;;;;5.15;2.25;;;20.90;99.90;;;;;;5021932;28;20079;-76
2023/09/21 12:54:08;;;;;;;3.90;2.00;;;20.90;99.90;;;;;;5021610;28;20060;-76